Westwood, California
Current Conditions -  °F | °C
As of 2:47 PM on Tuesday 25 Nov 2014 (Local Time) from KCIC Reporting Station
Few Clouds Few Clouds  
Wind Chill: 63°   Ceiling: Unl
Heat Index: 63°   Visibility: 80mi
Dew Point: 43°   Wind: 6mph
Humidity: 48%   Direction: 300°WNW
Pressure: 30.4"   Gusts: NA
Location:  40.31°N, 121.01°W
Report Text: KCIC 252247Z 30005KT 80SM FEW150 17/06 A3040
Loading
Personal Weather Stations






























Interactive Weather Map New forecast layout! Learn more

10-Day Weather Forecast

Advertisements
Track Severe Weather on mobile